createdAt,value
2023-02-14T05:09:29.913Z,0.72
2023-02-14T05:12:32.329Z,0.81
2023-02-14T05:15:36.213Z,0.80
2023-02-14T05:18:39.819Z,0.79
2023-02-14T05:21:41.960Z,0.80
2023-02-14T05:24:44.306Z,0.79
2023-02-14T05:27:46.398Z,0.81
2023-02-14T05:30:50.743Z,1.00
2023-02-14T05:33:52.858Z,1.10
2023-02-14T05:36:55.283Z,1.18
2023-02-14T05:39:57.489Z,1.25
2023-02-14T05:43:00.321Z,1.30
2023-02-14T05:46:02.476Z,1.41
2023-02-14T05:49:04.912Z,1.45
2023-02-14T05:52:07.012Z,1.51
2023-02-14T05:55:10.291Z,1.67
2023-02-14T05:58:12.561Z,1.70
2023-02-14T06:01:15.015Z,1.78
2023-02-14T06:04:17.384Z,1.77
2023-02-14T06:07:19.632Z,1.69
2023-02-14T06:10:23.926Z,1.65
2023-02-14T06:13:26.091Z,1.51
2023-02-14T06:16:28.536Z,1.45
2023-02-14T06:19:30.716Z,1.41
2023-02-14T06:22:33.343Z,1.33
2023-02-14T06:25:35.720Z,1.26
2023-02-14T06:28:41.458Z,1.31
2023-02-14T06:31:43.866Z,1.34
2023-02-14T06:34:46.309Z,1.30
2023-02-14T06:37:48.746Z,1.41
2023-02-14T06:40:51.128Z,1.37
2023-02-14T06:43:53.315Z,1.37
2023-02-14T06:46:55.731Z,1.47
2023-02-14T06:49:59.951Z,1.58
2023-02-14T06:53:02.384Z,1.70
2023-02-14T06:56:05.165Z,1.75
2023-02-14T06:59:07.843Z,1.92
2023-02-14T07:02:12.647Z,2.07
2023-02-14T07:05:16.238Z,2.08
2023-02-14T07:08:18.870Z,2.20
2023-02-14T07:11:21.284Z,2.38
2023-02-14T07:14:23.605Z,2.54
2023-02-14T07:17:26.073Z,2.65
2023-02-14T07:20:28.497Z,2.86
2023-02-14T07:23:30.908Z,3.30
2023-02-14T07:26:33.045Z,3.71
2023-02-14T07:29:36.057Z,3.92
2023-02-14T07:32:39.331Z,4.07
2023-02-14T07:35:41.808Z,4.20
2023-02-14T07:38:44.797Z,4.38
2023-02-14T07:41:47.763Z,4.51
2023-02-14T07:44:51.973Z,4.57
2023-02-14T07:47:55.548Z,4.64
2023-02-14T07:50:59.032Z,4.97
2023-02-14T07:54:01.645Z,5.17
2023-02-14T07:57:03.958Z,5.30
2023-02-14T08:00:07.517Z,5.43
2023-02-14T08:03:15.473Z,5.28
2023-02-14T08:06:19.486Z,5.25
2023-02-14T08:09:25.576Z,5.14
2023-02-14T08:12:46.410Z,5.06
2023-02-14T08:16:07.678Z,5.00
2023-02-14T08:19:10.300Z,5.04
2023-02-14T08:22:12.532Z,5.01
2023-02-14T08:25:14.997Z,5.00
2023-02-14T08:28:18.007Z,4.99
2023-02-14T08:31:35.521Z,5.18
2023-02-14T08:34:37.970Z,5.52
2023-02-14T08:37:40.667Z,5.66
2023-02-14T08:40:43.315Z,5.73
2023-02-14T08:43:45.714Z,5.75
2023-02-14T08:46:48.061Z,5.79
2023-02-14T08:49:50.743Z,5.95
2023-02-14T08:52:52.821Z,6.17
2023-02-14T08:55:55.226Z,6.23
2023-02-14T08:58:57.379Z,6.33
2023-02-14T09:01:59.841Z,6.38
2023-02-14T09:05:02.001Z,6.23
2023-02-14T09:08:05.133Z,6.33
2023-02-14T09:11:14.381Z,6.51
2023-02-14T09:14:17.205Z,6.55
2023-02-14T09:17:19.469Z,6.59
2023-02-14T09:20:22.295Z,6.60
2023-02-14T09:23:24.581Z,6.76
2023-02-14T09:26:27.450Z,6.95
2023-02-14T09:29:30.639Z,7.20
2023-02-14T09:32:34.135Z,7.21
2023-02-14T09:35:54.642Z,7.45
2023-02-14T09:38:57.021Z,7.48
2023-02-14T09:42:24.267Z,7.40
2023-02-14T09:45:28.298Z,7.37
2023-02-14T09:48:41.662Z,7.41
2023-02-14T09:51:49.130Z,7.52
2023-02-14T09:54:55.422Z,7.37
2023-02-14T09:58:13.509Z,7.44
2023-02-14T10:01:26.318Z,7.50
2023-02-14T10:04:33.539Z,7.59
2023-02-14T10:07:50.356Z,7.65
2023-02-14T10:11:07.005Z,7.66
2023-02-14T10:14:17.137Z,7.76
2023-02-14T10:17:44.834Z,7.82
2023-02-14T10:20:54.534Z,7.80
2023-02-14T10:24:15.202Z,7.72
2023-02-14T10:27:43.900Z,7.78
2023-02-14T10:31:02.275Z,7.92
2023-02-14T10:34:24.986Z,8.08
2023-02-14T10:37:39.808Z,8.02
2023-02-14T10:41:19.816Z,8.18
2023-02-14T10:44:50.231Z,8.26
2023-02-14T10:48:17.338Z,8.37
2023-02-14T10:51:33.467Z,8.39
2023-02-14T10:54:43.259Z,8.67
2023-02-14T10:57:51.060Z,8.87
2023-02-14T11:00:58.228Z,8.67
2023-02-14T11:04:06.259Z,8.67
2023-02-14T11:07:13.971Z,8.86
2023-02-14T11:10:21.544Z,9.09
2023-02-14T11:13:34.191Z,9.14
2023-02-14T11:16:37.547Z,9.20
2023-02-14T11:19:39.839Z,9.06
2023-02-14T11:22:42.249Z,9.19
2023-02-14T11:25:51.246Z,9.27
2023-02-14T11:29:02.465Z,9.23
2023-02-14T11:32:10.567Z,9.00
2023-02-14T11:35:24.231Z,9.13
2023-02-14T11:38:35.871Z,9.09
2023-02-14T11:42:12.744Z,9.01
2023-02-14T11:45:38.379Z,9.09
2023-02-14T11:49:04.943Z,9.29
2023-02-14T11:52:15.709Z,9.25
2023-02-14T11:55:28.221Z,9.33
2023-02-14T11:58:39.120Z,9.56
2023-02-14T12:01:45.356Z,9.74
2023-02-14T12:04:52.839Z,9.82
2023-02-14T12:08:02.129Z,9.82
2023-02-14T12:11:19.871Z,9.58
2023-02-14T12:14:24.137Z,9.46
2023-02-14T12:17:37.545Z,9.65
2023-02-14T12:20:45.696Z,10.32
2023-02-14T12:23:56.741Z,10.21
2023-02-14T12:31:14.683Z,9.77
2023-02-14T12:34:18.274Z,9.70
2023-02-14T12:38:03.824Z,9.65
2023-02-14T12:46:08.936Z,9.64
2023-02-14T12:49:38.900Z,9.61
2023-02-14T12:53:01.297Z,9.61
2023-02-14T12:56:38.230Z,9.74
2023-02-14T13:00:04.539Z,9.73
2023-02-14T13:03:28.488Z,9.85
2023-02-14T13:06:32.869Z,9.95
2023-02-14T13:09:59.266Z,9.93
2023-02-14T13:13:21.004Z,9.98
2023-02-14T13:16:35.675Z,9.83
2023-02-14T13:19:52.617Z,9.76
2023-02-14T13:23:03.016Z,9.72
2023-02-14T13:26:22.550Z,9.75
2023-02-14T13:29:29.579Z,9.77
2023-02-14T13:32:38.960Z,9.90
2023-02-14T13:35:41.974Z,9.85
2023-02-14T13:38:56.688Z,9.79
2023-02-14T13:41:59.405Z,9.88
2023-02-14T13:45:01.659Z,9.94
2023-02-14T13:48:07.102Z,9.86
2023-02-14T13:51:10.556Z,9.72
2023-02-14T13:54:28.176Z,9.79
2023-02-14T13:57:38.367Z,9.63
2023-02-14T14:00:43.204Z,9.60
2023-02-14T14:03:59.168Z,9.52
2023-02-14T14:07:04.366Z,9.59
2023-02-14T14:10:11.772Z,9.76
2023-02-14T14:13:46.581Z,9.61
2023-02-14T14:16:59.297Z,9.52
2023-02-14T14:20:06.200Z,9.57
2023-02-14T14:23:29.928Z,9.58
2023-02-14T14:26:39.484Z,9.53
2023-02-14T14:29:50.563Z,9.40
2023-02-14T14:32:52.707Z,9.37
2023-02-14T14:36:07.933Z,9.39
2023-02-14T14:39:11.339Z,9.34
2023-02-14T14:42:15.493Z,9.36
2023-02-14T14:45:29.490Z,9.39
2023-02-14T14:48:37.582Z,9.29
2023-02-14T14:51:40.013Z,9.35
2023-02-14T14:54:43.803Z,9.31
2023-02-14T14:57:54.212Z,9.15
2023-02-14T15:00:56.686Z,9.03
2023-02-14T15:04:30.453Z,9.11
2023-02-14T15:07:34.645Z,9.03
2023-02-14T15:10:36.937Z,9.12
2023-02-14T15:13:53.348Z,8.98
2023-02-14T15:17:00.554Z,8.81
2023-02-14T15:20:08.295Z,8.84
2023-02-14T15:23:18.923Z,8.92
2023-02-14T15:26:31.604Z,8.96
2023-02-14T15:29:33.763Z,8.75
2023-02-14T15:32:38.044Z,8.71
2023-02-14T15:35:42.293Z,8.56
2023-02-14T15:38:45.656Z,8.61
2023-02-14T15:41:47.846Z,8.55
2023-02-14T15:44:50.234Z,8.44
2023-02-14T15:47:55.320Z,8.49
2023-02-14T15:51:00.287Z,8.26
2023-02-14T15:54:07.463Z,8.07
2023-02-14T15:57:22.530Z,8.04
2023-02-14T16:00:25.539Z,7.88
2023-02-14T16:03:33.790Z,7.85
2023-02-14T16:06:44.317Z,7.78
2023-02-14T16:09:46.920Z,7.62
2023-02-14T16:13:03.000Z,7.58
2023-02-14T16:16:08.171Z,7.65
2023-02-14T16:19:31.116Z,7.60
2023-02-14T16:22:38.231Z,7.65
2023-02-14T16:25:41.248Z,7.58
2023-02-14T16:28:43.633Z,7.46
2023-02-14T16:35:18.378Z,7.19
2023-02-14T16:38:21.777Z,7.08
2023-02-14T16:41:29.363Z,7.03
2023-02-14T16:44:31.669Z,6.89
2023-02-14T16:47:34.028Z,6.92
